sensor_id;sensor_type;location;lat;lon;timestamp;pressure;altitude;pressure_sealevel;temperature
19040;BMP180;9652;49.014;12.052;2023-08-06T00:00:03;97025.00;;;19.80
19040;BMP180;9652;49.014;12.052;2023-08-06T00:02:35;97024.00;;;19.80
19040;BMP180;9652;49.014;12.052;2023-08-06T00:05:02;97022.00;;;19.80
19040;BMP180;9652;49.014;12.052;2023-08-06T00:07:29;97024.00;;;19.80
19040;BMP180;9652;49.014;12.052;2023-08-06T00:09:57;97018.00;;;19.80
19040;BMP180;9652;49.014;12.052;2023-08-06T00:12:25;97004.00;;;19.80
19040;BMP180;9652;49.014;12.052;2023-08-06T00:14:53;97018.00;;;19.80
19040;BMP180;9652;49.014;12.052;2023-08-06T00:17:20;97014.00;;;19.80
19040;BMP180;9652;49.014;12.052;2023-08-06T00:19:47;97016.00;;;19.80
19040;BMP180;9652;49.014;12.052;2023-08-06T00:22:14;97012.00;;;19.80
19040;BMP180;9652;49.014;12.052;2023-08-06T00:24:41;97028.00;;;19.80
19040;BMP180;9652;49.014;12.052;2023-08-06T00:27:09;97017.00;;;19.80
19040;BMP180;9652;49.014;12.052;2023-08-06T00:29:37;97017.00;;;19.80
19040;BMP180;9652;49.014;12.052;2023-08-06T00:32:04;97021.00;;;19.70
19040;BMP180;9652;49.014;12.052;2023-08-06T00:34:31;97025.00;;;19.80
19040;BMP180;9652;49.014;12.052;2023-08-06T00:36:58;97018.00;;;19.70
19040;BMP180;9652;49.014;12.052;2023-08-06T00:39:25;97021.00;;;19.70
19040;BMP180;9652;49.014;12.052;2023-08-06T00:41:52;97042.00;;;19.70
19040;BMP180;9652;49.014;12.052;2023-08-06T00:44:20;97028.00;;;19.70
19040;BMP180;9652;49.014;12.052;2023-08-06T00:46:48;97024.00;;;19.60
19040;BMP180;9652;49.014;12.052;2023-08-06T00:49:16;97024.00;;;19.60
19040;BMP180;9652;49.014;12.052;2023-08-06T00:51:43;97018.00;;;19.60
19040;BMP180;9652;49.014;12.052;2023-08-06T00:54:11;97020.00;;;19.60
19040;BMP180;9652;49.014;12.052;2023-08-06T00:56:38;97022.00;;;19.60
19040;BMP180;9652;49.014;12.052;2023-08-06T00:59:06;97016.00;;;19.50
19040;BMP180;9652;49.014;12.052;2023-08-06T01:01:33;97020.00;;;19.60
19040;BMP180;9652;49.014;12.052;2023-08-06T01:04:02;97026.00;;;19.50
19040;BMP180;9652;49.014;12.052;2023-08-06T01:06:40;97023.00;;;19.50
19040;BMP180;9652;49.014;12.052;2023-08-06T01:09:22;97020.00;;;19.50
19040;BMP180;9652;49.014;12.052;2023-08-06T01:12:02;97007.00;;;19.50
19040;BMP180;9652;49.014;12.052;2023-08-06T01:14:44;97013.00;;;19.50
19040;BMP180;9652;49.014;12.052;2023-08-06T01:17:13;97005.00;;;19.50
19040;BMP180;9652;49.014;12.052;2023-08-06T01:19:42;97001.00;;;19.50
19040;BMP180;9652;49.014;12.052;2023-08-06T01:22:10;97004.00;;;19.50
19040;BMP180;9652;49.014;12.052;2023-08-06T01:24:38;97004.00;;;19.50
19040;BMP180;9652;49.014;12.052;2023-08-06T01:27:10;97005.00;;;19.40
19040;BMP180;9652;49.014;12.052;2023-08-06T01:29:45;97007.00;;;19.40
19040;BMP180;9652;49.014;12.052;2023-08-06T01:32:15;97013.00;;;19.40
19040;BMP180;9652;49.014;12.052;2023-08-06T01:34:46;97008.00;;;19.30
19040;BMP180;9652;49.014;12.052;2023-08-06T01:37:16;97005.00;;;19.30
19040;BMP180;9652;49.014;12.052;2023-08-06T01:39:43;97008.00;;;19.20
19040;BMP180;9652;49.014;12.052;2023-08-06T01:42:10;97010.00;;;19.20
19040;BMP180;9652;49.014;12.052;2023-08-06T01:44:37;97009.00;;;19.20
19040;BMP180;9652;49.014;12.052;2023-08-06T01:47:05;97010.00;;;19.10
19040;BMP180;9652;49.014;12.052;2023-08-06T01:49:32;97010.00;;;19.10
19040;BMP180;9652;49.014;12.052;2023-08-06T01:51:59;97010.00;;;19.10
19040;BMP180;9652;49.014;12.052;2023-08-06T01:54:28;97000.00;;;19.00
19040;BMP180;9652;49.014;12.052;2023-08-06T01:56:55;97009.00;;;19.00
19040;BMP180;9652;49.014;12.052;2023-08-06T01:59:24;96997.00;;;19.00
19040;BMP180;9652;49.014;12.052;2023-08-06T02:01:51;97000.00;;;19.00
19040;BMP180;9652;49.014;12.052;2023-08-06T02:04:18;96993.00;;;19.00
19040;BMP180;9652;49.014;12.052;2023-08-06T02:06:45;96993.00;;;19.00
19040;BMP180;9652;49.014;12.052;2023-08-06T02:09:12;96985.00;;;19.00
19040;BMP180;9652;49.014;12.052;2023-08-06T02:11:41;96986.00;;;19.00
19040;BMP180;9652;49.014;12.052;2023-08-06T02:14:08;96980.00;;;19.00
19040;BMP180;9652;49.014;12.052;2023-08-06T02:16:35;96965.00;;;18.90
19040;BMP180;9652;49.014;12.052;2023-08-06T02:19:02;96984.00;;;18.90
19040;BMP180;9652;49.014;12.052;2023-08-06T02:21:29;96973.00;;;18.90
19040;BMP180;9652;49.014;12.052;2023-08-06T02:23:56;96980.00;;;18.90
19040;BMP180;9652;49.014;12.052;2023-08-06T02:26:23;96966.00;;;18.90
19040;BMP180;9652;49.014;12.052;2023-08-06T02:28:52;96967.00;;;18.90
19040;BMP180;9652;49.014;12.052;2023-08-06T02:31:19;96966.00;;;18.90
19040;BMP180;9652;49.014;12.052;2023-08-06T02:33:46;96977.00;;;18.90
19040;BMP180;9652;49.014;12.052;2023-08-06T02:36:13;96976.00;;;18.90
19040;BMP180;9652;49.014;12.052;2023-08-06T02:38:40;96957.00;;;18.80
19040;BMP180;9652;49.014;12.052;2023-08-06T02:41:07;96975.00;;;18.80
19040;BMP180;9652;49.014;12.052;2023-08-06T02:43:34;96971.00;;;18.80
19040;BMP180;9652;49.014;12.052;2023-08-06T02:46:03;96963.00;;;18.80
19040;BMP180;9652;49.014;12.052;2023-08-06T02:48:31;96965.00;;;18.80
19040;BMP180;9652;49.014;12.052;2023-08-06T02:50:59;96957.00;;;18.80
19040;BMP180;9652;49.014;12.052;2023-08-06T02:53:27;96961.00;;;18.70
19040;BMP180;9652;49.014;12.052;2023-08-06T02:55:55;96962.00;;;18.70
19040;BMP180;9652;49.014;12.052;2023-08-06T02:58:29;96966.00;;;18.70
19040;BMP180;9652;49.014;12.052;2023-08-06T03:01:07;96967.00;;;18.70
19040;BMP180;9652;49.014;12.052;2023-08-06T03:03:46;96956.00;;;18.70
19040;BMP180;9652;49.014;12.052;2023-08-06T03:06:20;96974.00;;;18.70
19040;BMP180;9652;49.014;12.052;2023-08-06T03:08:51;96972.00;;;18.70
19040;BMP180;9652;49.014;12.052;2023-08-06T03:11:18;96976.00;;;18.70
19040;BMP180;9652;49.014;12.052;2023-08-06T03:13:47;96947.00;;;18.70
19040;BMP180;9652;49.014;12.052;2023-08-06T03:16:16;96956.00;;;18.70
19040;BMP180;9652;49.014;12.052;2023-08-06T03:18:43;96970.00;;;18.70
19040;BMP180;9652;49.014;12.052;2023-08-06T03:21:11;96970.00;;;18.70
19040;BMP180;9652;49.014;12.052;2023-08-06T03:23:38;96959.00;;;18.70
19040;BMP180;9652;49.014;12.052;2023-08-06T03:26:06;96956.00;;;18.70
19040;BMP180;9652;49.014;12.052;2023-08-06T03:28:33;96970.00;;;18.70
19040;BMP180;9652;49.014;12.052;2023-08-06T03:31:02;96964.00;;;18.70
19040;BMP180;9652;49.014;12.052;2023-08-06T03:33:37;96962.00;;;18.70
19040;BMP180;9652;49.014;12.052;2023-08-06T03:36:09;96961.00;;;18.60
19040;BMP180;9652;49.014;12.052;2023-08-06T03:38:37;96961.00;;;18.60
19040;BMP180;9652;49.014;12.052;2023-08-06T03:41:07;96935.00;;;18.60
19040;BMP180;9652;49.014;12.052;2023-08-06T03:43:34;96946.00;;;18.60
19040;BMP180;9652;49.014;12.052;2023-08-06T03:46:04;96938.00;;;18.60
19040;BMP180;9652;49.014;12.052;2023-08-06T03:48:31;96944.00;;;18.60
19040;BMP180;9652;49.014;12.052;2023-08-06T03:51:00;96958.00;;;18.60
19040;BMP180;9652;49.014;12.052;2023-08-06T03:53:28;96943.00;;;18.60
19040;BMP180;9652;49.014;12.052;2023-08-06T03:55:56;96960.00;;;18.60
19040;BMP180;9652;49.014;12.052;2023-08-06T03:58:26;96945.00;;;18.60
19040;BMP180;9652;49.014;12.052;2023-08-06T04:00:59;96965.00;;;18.60
19040;BMP180;9652;49.014;12.052;2023-08-06T04:03:29;96960.00;;;18.60
19040;BMP180;9652;49.014;12.052;2023-08-06T04:05:56;96967.00;;;18.50
19040;BMP180;9652;49.014;12.052;2023-08-06T04:08:25;96966.00;;;18.50
19040;BMP180;9652;49.014;12.052;2023-08-06T04:10:52;96956.00;;;18.50
19040;BMP180;9652;49.014;12.052;2023-08-06T04:13:20;96959.00;;;18.50
19040;BMP180;9652;49.014;12.052;2023-08-06T04:15:47;96954.00;;;18.50
19040;BMP180;9652;49.014;12.052;2023-08-06T04:18:14;96955.00;;;18.50
19040;BMP180;9652;49.014;12.052;2023-08-06T04:20:44;96958.00;;;18.50
19040;BMP180;9652;49.014;12.052;2023-08-06T04:23:12;96952.00;;;18.50
19040;BMP180;9652;49.014;12.052;2023-08-06T04:25:41;96966.00;;;18.60
19040;BMP180;9652;49.014;12.052;2023-08-06T04:28:08;96961.00;;;18.60
19040;BMP180;9652;49.014;12.052;2023-08-06T04:30:38;96953.00;;;18.20
19040;BMP180;9652;49.014;12.052;2023-08-06T04:33:05;96959.00;;;18.60
19040;BMP180;9652;49.014;12.052;2023-08-06T04:35:34;96907.00;;;18.60
19040;BMP180;9652;49.014;12.052;2023-08-06T04:38:01;96941.00;;;18.60
19040;BMP180;9652;49.014;12.052;2023-08-06T04:40:28;96903.00;;;18.60
19040;BMP180;9652;49.014;12.052;2023-08-06T04:42:56;96944.00;;;18.60
19040;BMP180;9652;49.014;12.052;2023-08-06T04:45:24;96936.00;;;18.60
19040;BMP180;9652;49.014;12.052;2023-08-06T04:47:51;96936.00;;;18.60
19040;BMP180;9652;49.014;12.052;2023-08-06T04:50:18;96940.00;;;18.60
19040;BMP180;9652;49.014;12.052;2023-08-06T04:52:45;96936.00;;;18.70
19040;BMP180;9652;49.014;12.052;2023-08-06T04:55:12;96935.00;;;18.70
19040;BMP180;9652;49.014;12.052;2023-08-06T04:57:39;96930.00;;;18.70
19040;BMP180;9652;49.014;12.052;2023-08-06T05:00:09;96937.00;;;18.70
19040;BMP180;9652;49.014;12.052;2023-08-06T05:02:36;96907.00;;;18.70
19040;BMP180;9652;49.014;12.052;2023-08-06T05:05:05;96931.00;;;18.70
19040;BMP180;9652;49.014;12.052;2023-08-06T05:07:32;96936.00;;;18.70
19040;BMP180;9652;49.014;12.052;2023-08-06T05:09:59;96927.00;;;18.70
19040;BMP180;9652;49.014;12.052;2023-08-06T05:12:26;96925.00;;;18.80
19040;BMP180;9652;49.014;12.052;2023-08-06T05:14:53;96934.00;;;18.80
19040;BMP180;9652;49.014;12.052;2023-08-06T05:17:21;96947.00;;;18.80
19040;BMP180;9652;49.014;12.052;2023-08-06T05:19:49;96924.00;;;18.80
19040;BMP180;9652;49.014;12.052;2023-08-06T05:22:17;96937.00;;;18.80
19040;BMP180;9652;49.014;12.052;2023-08-06T05:24:44;96940.00;;;18.90
19040;BMP180;9652;49.014;12.052;2023-08-06T05:27:11;96936.00;;;18.90
19040;BMP180;9652;49.014;12.052;2023-08-06T05:29:38;96938.00;;;18.90
19040;BMP180;9652;49.014;12.052;2023-08-06T05:32:05;96934.00;;;18.90
19040;BMP180;9652;49.014;12.052;2023-08-06T05:34:34;96929.00;;;18.90
19040;BMP180;9652;49.014;12.052;2023-08-06T05:37:01;96938.00;;;18.90
19040;BMP180;9652;49.014;12.052;2023-08-06T05:39:28;96939.00;;;18.90
19040;BMP180;9652;49.014;12.052;2023-08-06T05:41:55;96939.00;;;18.90
19040;BMP180;9652;49.014;12.052;2023-08-06T05:44:23;96938.00;;;18.90
19040;BMP180;9652;49.014;12.052;2023-08-06T05:46:50;96940.00;;;18.90
19040;BMP180;9652;49.014;12.052;2023-08-06T05:49:19;96947.00;;;19.00
19040;BMP180;9652;49.014;12.052;2023-08-06T05:51:47;96940.00;;;19.00
19040;BMP180;9652;49.014;12.052;2023-08-06T05:54:14;96937.00;;;19.00
19040;BMP180;9652;49.014;12.052;2023-08-06T05:56:41;96939.00;;;19.10
19040;BMP180;9652;49.014;12.052;2023-08-06T05:59:08;96941.00;;;19.10
19040;BMP180;9652;49.014;12.052;2023-08-06T06:01:35;96935.00;;;19.10
19040;BMP180;9652;49.014;12.052;2023-08-06T06:04:03;96943.00;;;19.20
19040;BMP180;9652;49.014;12.052;2023-08-06T06:06:30;96936.00;;;19.20
19040;BMP180;9652;49.014;12.052;2023-08-06T06:08:58;96930.00;;;19.20
19040;BMP180;9652;49.014;12.052;2023-08-06T06:11:25;96925.00;;;19.20
19040;BMP180;9652;49.014;12.052;2023-08-06T06:13:52;96928.00;;;19.20
19040;BMP180;9652;49.014;12.052;2023-08-06T06:16:20;96924.00;;;19.30
19040;BMP180;9652;49.014;12.052;2023-08-06T06:18:47;96924.00;;;19.30
19040;BMP180;9652;49.014;12.052;2023-08-06T06:21:14;96916.00;;;19.30
19040;BMP180;9652;49.014;12.052;2023-08-06T06:23:41;96921.00;;;19.40
19040;BMP180;9652;49.014;12.052;2023-08-06T06:26:09;96922.00;;;19.40
19040;BMP180;9652;49.014;12.052;2023-08-06T06:28:36;96900.00;;;19.50
19040;BMP180;9652;49.014;12.052;2023-08-06T06:31:04;96916.00;;;19.50
19040;BMP180;9652;49.014;12.052;2023-08-06T06:33:31;96907.00;;;19.50
19040;BMP180;9652;49.014;12.052;2023-08-06T06:35:58;96927.00;;;19.40
19040;BMP180;9652;49.014;12.052;2023-08-06T06:38:25;96911.00;;;19.40
19040;BMP180;9652;49.014;12.052;2023-08-06T06:40:56;96907.00;;;19.40
19040;BMP180;9652;49.014;12.052;2023-08-06T06:43:25;96914.00;;;19.40
19040;BMP180;9652;49.014;12.052;2023-08-06T06:45:53;96890.00;;;19.40
19040;BMP180;9652;49.014;12.052;2023-08-06T06:48:21;96904.00;;;19.40
19040;BMP180;9652;49.014;12.052;2023-08-06T06:50:48;96902.00;;;19.40
19040;BMP180;9652;49.014;12.052;2023-08-06T06:53:15;96896.00;;;19.40
19040;BMP180;9652;49.014;12.052;2023-08-06T06:55:42;96896.00;;;19.40
19040;BMP180;9652;49.014;12.052;2023-08-06T06:58:10;96889.00;;;19.40
19040;BMP180;9652;49.014;12.052;2023-08-06T07:00:38;96896.00;;;19.40
19040;BMP180;9652;49.014;12.052;2023-08-06T07:03:05;96893.00;;;19.40
19040;BMP180;9652;49.014;12.052;2023-08-06T07:05:33;96891.00;;;19.40
19040;BMP180;9652;49.014;12.052;2023-08-06T07:08:00;96887.00;;;19.40
19040;BMP180;9652;49.014;12.052;2023-08-06T07:10:27;96884.00;;;19.40
19040;BMP180;9652;49.014;12.052;2023-08-06T07:12:54;96887.00;;;19.40
19040;BMP180;9652;49.014;12.052;2023-08-06T07:15:21;96889.00;;;19.40
19040;BMP180;9652;49.014;12.052;2023-08-06T07:17:49;96892.00;;;19.40
19040;BMP180;9652;49.014;12.052;2023-08-06T07:20:16;96885.00;;;19.50
19040;BMP180;9652;49.014;12.052;2023-08-06T07:22:44;96891.00;;;19.50
19040;BMP180;9652;49.014;12.052;2023-08-06T07:25:11;96896.00;;;19.50
19040;BMP180;9652;49.014;12.052;2023-08-06T07:27:39;96891.00;;;19.70
19040;BMP180;9652;49.014;12.052;2023-08-06T07:30:07;96879.00;;;19.70
19040;BMP180;9652;49.014;12.052;2023-08-06T07:32:34;96880.00;;;19.90
19040;BMP180;9652;49.014;12.052;2023-08-06T07:35:04;96887.00;;;20.00
19040;BMP180;9652;49.014;12.052;2023-08-06T07:37:31;96891.00;;;20.20
19040;BMP180;9652;49.014;12.052;2023-08-06T07:39:58;96886.00;;;20.40
19040;BMP180;9652;49.014;12.052;2023-08-06T07:42:25;96886.00;;;20.60
19040;BMP180;9652;49.014;12.052;2023-08-06T07:44:54;96885.00;;;20.80
19040;BMP180;9652;49.014;12.052;2023-08-06T07:47:21;96875.00;;;21.00
19040;BMP180;9652;49.014;12.052;2023-08-06T07:49:48;96879.00;;;21.10
19040;BMP180;9652;49.014;12.052;2023-08-06T07:52:17;96869.00;;;21.30
19040;BMP180;9652;49.014;12.052;2023-08-06T07:54:44;96871.00;;;21.50
19040;BMP180;9652;49.014;12.052;2023-08-06T07:57:11;96868.00;;;21.70
19040;BMP180;9652;49.014;12.052;2023-08-06T07:59:39;96865.00;;;21.90
19040;BMP180;9652;49.014;12.052;2023-08-06T08:02:06;96861.00;;;22.00
19040;BMP180;9652;49.014;12.052;2023-08-06T08:04:33;96869.00;;;22.00
19040;BMP180;9652;49.014;12.052;2023-08-06T08:07:00;96864.00;;;22.10
19040;BMP180;9652;49.014;12.052;2023-08-06T08:09:29;96868.00;;;22.10
19040;BMP180;9652;49.014;12.052;2023-08-06T08:11:56;96868.00;;;22.20
19040;BMP180;9652;49.014;12.052;2023-08-06T08:14:24;96863.00;;;22.20
19040;BMP180;9652;49.014;12.052;2023-08-06T08:16:51;96863.00;;;22.20
19040;BMP180;9652;49.014;12.052;2023-08-06T08:19:18;96862.00;;;22.20
19040;BMP180;9652;49.014;12.052;2023-08-06T08:21:45;96869.00;;;22.30
19040;BMP180;9652;49.014;12.052;2023-08-06T08:24:12;96858.00;;;22.40
19040;BMP180;9652;49.014;12.052;2023-08-06T08:26:41;96864.00;;;22.40
19040;BMP180;9652;49.014;12.052;2023-08-06T08:29:08;96865.00;;;22.50
19040;BMP180;9652;49.014;12.052;2023-08-06T08:31:35;96856.00;;;22.50
19040;BMP180;9652;49.014;12.052;2023-08-06T08:34:05;96853.00;;;22.50
19040;BMP180;9652;49.014;12.052;2023-08-06T08:36:32;96866.00;;;22.50
19040;BMP180;9652;49.014;12.052;2023-08-06T08:38:59;96855.00;;;22.50
19040;BMP180;9652;49.014;12.052;2023-08-06T08:41:28;96850.00;;;22.50
19040;BMP180;9652;49.014;12.052;2023-08-06T08:43:59;96844.00;;;22.60
19040;BMP180;9652;49.014;12.052;2023-08-06T08:46:29;96842.00;;;22.60
19040;BMP180;9652;49.014;12.052;2023-08-06T08:48:59;96855.00;;;22.60
19040;BMP180;9652;49.014;12.052;2023-08-06T08:51:27;96860.00;;;22.60
19040;BMP180;9652;49.014;12.052;2023-08-06T08:53:56;96854.00;;;22.50
19040;BMP180;9652;49.014;12.052;2023-08-06T08:56:23;96852.00;;;22.50
19040;BMP180;9652;49.014;12.052;2023-08-06T08:58:50;96845.00;;;22.50
19040;BMP180;9652;49.014;12.052;2023-08-06T09:01:21;96842.00;;;22.50
19040;BMP180;9652;49.014;12.052;2023-08-06T09:03:49;96854.00;;;22.50
19040;BMP180;9652;49.014;12.052;2023-08-06T09:06:19;96840.00;;;22.50
19040;BMP180;9652;49.014;12.052;2023-08-06T09:08:56;96834.00;;;22.60
19040;BMP180;9652;49.014;12.052;2023-08-06T09:11:26;96829.00;;;22.60
19040;BMP180;9652;49.014;12.052;2023-08-06T09:13:54;96833.00;;;22.70
19040;BMP180;9652;49.014;12.052;2023-08-06T09:16:24;96825.00;;;22.70
19040;BMP180;9652;49.014;12.052;2023-08-06T09:18:52;96826.00;;;22.80
19040;BMP180;9652;49.014;12.052;2023-08-06T09:21:19;96825.00;;;23.00
19040;BMP180;9652;49.014;12.052;2023-08-06T09:23:46;96821.00;;;23.10
19040;BMP180;9652;49.014;12.052;2023-08-06T09:26:13;96819.00;;;23.20
19040;BMP180;9652;49.014;12.052;2023-08-06T09:28:40;96783.00;;;23.30
19040;BMP180;9652;49.014;12.052;2023-08-06T09:31:09;96821.00;;;23.40
19040;BMP180;9652;49.014;12.052;2023-08-06T09:33:38;96816.00;;;23.50
19040;BMP180;9652;49.014;12.052;2023-08-06T09:36:09;96808.00;;;23.60
19040;BMP180;9652;49.014;12.052;2023-08-06T09:38:38;96814.00;;;23.70
19040;BMP180;9652;49.014;12.052;2023-08-06T09:41:06;96805.00;;;23.80
19040;BMP180;9652;49.014;12.052;2023-08-06T09:43:41;96802.00;;;23.90
19040;BMP180;9652;49.014;12.052;2023-08-06T09:46:12;96817.00;;;24.00
19040;BMP180;9652;49.014;12.052;2023-08-06T09:48:45;96837.00;;;24.00
19040;BMP180;9652;49.014;12.052;2023-08-06T09:51:13;96842.00;;;23.80
19040;BMP180;9652;49.014;12.052;2023-08-06T09:53:42;96833.00;;;23.60
19040;BMP180;9652;49.014;12.052;2023-08-06T09:56:11;96831.00;;;23.30
19040;BMP180;9652;49.014;12.052;2023-08-06T09:58:41;96831.00;;;23.20
19040;BMP180;9652;49.014;12.052;2023-08-06T10:01:09;96824.00;;;23.00
19040;BMP180;9652;49.014;12.052;2023-08-06T10:03:39;96828.00;;;22.90
19040;BMP180;9652;49.014;12.052;2023-08-06T10:06:08;96835.00;;;22.80
19040;BMP180;9652;49.014;12.052;2023-08-06T10:08:36;96836.00;;;22.70
19040;BMP180;9652;49.014;12.052;2023-08-06T10:11:04;96834.00;;;22.60
19040;BMP180;9652;49.014;12.052;2023-08-06T10:13:34;96836.00;;;22.60
19040;BMP180;9652;49.014;12.052;2023-08-06T10:16:02;96821.00;;;22.50
19040;BMP180;9652;49.014;12.052;2023-08-06T10:18:31;96815.00;;;22.40
19040;BMP180;9652;49.014;12.052;2023-08-06T10:21:00;96821.00;;;22.30
19040;BMP180;9652;49.014;12.052;2023-08-06T10:23:36;96826.00;;;22.30
19040;BMP180;9652;49.014;12.052;2023-08-06T10:26:04;96830.00;;;22.30
19040;BMP180;9652;49.014;12.052;2023-08-06T10:28:36;96829.00;;;22.30
19040;BMP180;9652;49.014;12.052;2023-08-06T10:31:04;96836.00;;;22.00
19040;BMP180;9652;49.014;12.052;2023-08-06T10:33:42;96820.00;;;22.10
19040;BMP180;9652;49.014;12.052;2023-08-06T10:36:10;96829.00;;;22.00
19040;BMP180;9652;49.014;12.052;2023-08-06T10:38:47;96813.00;;;21.90
19040;BMP180;9652;49.014;12.052;2023-08-06T10:41:18;96809.00;;;21.90
19040;BMP180;9652;49.014;12.052;2023-08-06T10:43:47;96805.00;;;21.90
19040;BMP180;9652;49.014;12.052;2023-08-06T10:46:25;96804.00;;;21.90
19040;BMP180;9652;49.014;12.052;2023-08-06T10:48:54;96803.00;;;22.00
19040;BMP180;9652;49.014;12.052;2023-08-06T10:51:21;96802.00;;;22.10
19040;BMP180;9652;49.014;12.052;2023-08-06T10:53:50;96816.00;;;22.20
19040;BMP180;9652;49.014;12.052;2023-08-06T10:56:19;96810.00;;;22.20
19040;BMP180;9652;49.014;12.052;2023-08-06T10:58:49;96811.00;;;22.20
19040;BMP180;9652;49.014;12.052;2023-08-06T11:01:17;96803.00;;;22.20
19040;BMP180;9652;49.014;12.052;2023-08-06T11:03:46;96807.00;;;22.10
19040;BMP180;9652;49.014;12.052;2023-08-06T11:06:18;96797.00;;;22.00
19040;BMP180;9652;49.014;12.052;2023-08-06T11:08:50;96808.00;;;21.90
19040;BMP180;9652;49.014;12.052;2023-08-06T11:11:19;96807.00;;;21.90
19040;BMP180;9652;49.014;12.052;2023-08-06T11:13:48;96812.00;;;21.80
19040;BMP180;9652;49.014;12.052;2023-08-06T11:16:17;96803.00;;;21.70
19040;BMP180;9652;49.014;12.052;2023-08-06T11:18:45;96803.00;;;21.50
19040;BMP180;9652;49.014;12.052;2023-08-06T11:21:13;96803.00;;;21.40
19040;BMP180;9652;49.014;12.052;2023-08-06T11:23:40;96770.00;;;21.30
19040;BMP180;9652;49.014;12.052;2023-08-06T11:26:09;96789.00;;;21.30
19040;BMP180;9652;49.014;12.052;2023-08-06T11:28:36;96790.00;;;21.20
19040;BMP180;9652;49.014;12.052;2023-08-06T11:31:03;96797.00;;;21.20
19040;BMP180;9652;49.014;12.052;2023-08-06T11:33:30;96803.00;;;21.10
19040;BMP180;9652;49.014;12.052;2023-08-06T11:35:59;96800.00;;;21.00
19040;BMP180;9652;49.014;12.052;2023-08-06T11:38:29;96806.00;;;20.80
19040;BMP180;9652;49.014;12.052;2023-08-06T11:40:56;96800.00;;;20.70
19040;BMP180;9652;49.014;12.052;2023-08-06T11:43:24;96779.00;;;20.70
19040;BMP180;9652;49.014;12.052;2023-08-06T11:45:51;96792.00;;;20.70
19040;BMP180;9652;49.014;12.052;2023-08-06T11:48:20;96774.00;;;20.80
19040;BMP180;9652;49.014;12.052;2023-08-06T11:50:47;96782.00;;;20.80
19040;BMP180;9652;49.014;12.052;2023-08-06T11:53:15;96670.00;;;20.90
19040;BMP180;9652;49.014;12.052;2023-08-06T11:55:42;96790.00;;;20.90
19040;BMP180;9652;49.014;12.052;2023-08-06T11:58:10;96792.00;;;20.80
19040;BMP180;9652;49.014;12.052;2023-08-06T12:00:39;96787.00;;;20.70
19040;BMP180;9652;49.014;12.052;2023-08-06T12:03:06;96793.00;;;20.60
19040;BMP180;9652;49.014;12.052;2023-08-06T12:05:34;96801.00;;;20.60
19040;BMP180;9652;49.014;12.052;2023-08-06T12:08:02;96795.00;;;20.50
19040;BMP180;9652;49.014;12.052;2023-08-06T12:10:31;96779.00;;;20.50
19040;BMP180;9652;49.014;12.052;2023-08-06T12:12:58;96792.00;;;20.50
19040;BMP180;9652;49.014;12.052;2023-08-06T12:15:25;96792.00;;;20.60
19040;BMP180;9652;49.014;12.052;2023-08-06T12:17:54;96789.00;;;20.70
19040;BMP180;9652;49.014;12.052;2023-08-06T12:20:21;96784.00;;;20.70
19040;BMP180;9652;49.014;12.052;2023-08-06T12:22:48;96766.00;;;20.70
19040;BMP180;9652;49.014;12.052;2023-08-06T12:25:15;96782.00;;;20.80
19040;BMP180;9652;49.014;12.052;2023-08-06T12:27:44;96795.00;;;20.90
19040;BMP180;9652;49.014;12.052;2023-08-06T12:30:13;96804.00;;;21.00
19040;BMP180;9652;49.014;12.052;2023-08-06T12:32:40;96808.00;;;21.10
19040;BMP180;9652;49.014;12.052;2023-08-06T12:35:09;96803.00;;;21.20
19040;BMP180;9652;49.014;12.052;2023-08-06T12:37:36;96807.00;;;21.30
19040;BMP180;9652;49.014;12.052;2023-08-06T12:40:06;96827.00;;;21.30
19040;BMP180;9652;49.014;12.052;2023-08-06T12:42:33;96851.00;;;21.30
19040;BMP180;9652;49.014;12.052;2023-08-06T12:45:00;96857.00;;;21.10
19040;BMP180;9652;49.014;12.052;2023-08-06T12:47:28;96851.00;;;20.90
19040;BMP180;9652;49.014;12.052;2023-08-06T12:49:55;96851.00;;;20.80
19040;BMP180;9652;49.014;12.052;2023-08-06T12:52:23;96840.00;;;20.40
19040;BMP180;9652;49.014;12.052;2023-08-06T12:54:50;96845.00;;;20.40
19040;BMP180;9652;49.014;12.052;2023-08-06T12:57:18;96837.00;;;20.30
19040;BMP180;9652;49.014;12.052;2023-08-06T12:59:45;96844.00;;;20.20
19040;BMP180;9652;49.014;12.052;2023-08-06T13:02:12;96846.00;;;20.20
19040;BMP180;9652;49.014;12.052;2023-08-06T13:04:39;96835.00;;;20.20
19040;BMP180;9652;49.014;12.052;2023-08-06T13:07:06;96836.00;;;20.20
19040;BMP180;9652;49.014;12.052;2023-08-06T13:09:34;96832.00;;;20.30
19040;BMP180;9652;49.014;12.052;2023-08-06T13:12:01;96850.00;;;20.50
19040;BMP180;9652;49.014;12.052;2023-08-06T13:14:31;96856.00;;;20.60
19040;BMP180;9652;49.014;12.052;2023-08-06T13:16:58;96838.00;;;20.70
19040;BMP180;9652;49.014;12.052;2023-08-06T13:19:25;96839.00;;;20.80
19040;BMP180;9652;49.014;12.052;2023-08-06T13:22:03;96832.00;;;20.90
19040;BMP180;9652;49.014;12.052;2023-08-06T13:24:34;96818.00;;;21.10
19040;BMP180;9652;49.014;12.052;2023-08-06T13:27:01;96838.00;;;21.30
19040;BMP180;9652;49.014;12.052;2023-08-06T13:29:28;96837.00;;;21.50
19040;BMP180;9652;49.014;12.052;2023-08-06T13:31:55;96820.00;;;21.90
19040;BMP180;9652;49.014;12.052;2023-08-06T13:34:22;96843.00;;;22.20
19040;BMP180;9652;49.014;12.052;2023-08-06T13:36:49;96842.00;;;22.40
19040;BMP180;9652;49.014;12.052;2023-08-06T13:39:16;96848.00;;;22.50
19040;BMP180;9652;49.014;12.052;2023-08-06T13:41:45;96849.00;;;22.50
19040;BMP180;9652;49.014;12.052;2023-08-06T13:44:12;96841.00;;;22.60
19040;BMP180;9652;49.014;12.052;2023-08-06T13:46:41;96855.00;;;22.70
19040;BMP180;9652;49.014;12.052;2023-08-06T13:49:09;96863.00;;;22.80
19040;BMP180;9652;49.014;12.052;2023-08-06T13:51:36;96860.00;;;22.80
19040;BMP180;9652;49.014;12.052;2023-08-06T13:54:05;96858.00;;;22.80
19040;BMP180;9652;49.014;12.052;2023-08-06T13:56:34;96869.00;;;22.70
19040;BMP180;9652;49.014;12.052;2023-08-06T13:59:04;96853.00;;;22.70
19040;BMP180;9652;49.014;12.052;2023-08-06T14:01:32;96833.00;;;22.70
19040;BMP180;9652;49.014;12.052;2023-08-06T14:03:59;96850.00;;;22.70
19040;BMP180;9652;49.014;12.052;2023-08-06T14:06:26;96857.00;;;22.90
19040;BMP180;9652;49.014;12.052;2023-08-06T14:08:53;96855.00;;;23.20
19040;BMP180;9652;49.014;12.052;2023-08-06T14:11:20;96848.00;;;23.40
19040;BMP180;9652;49.014;12.052;2023-08-06T14:13:48;96809.00;;;23.70